KMTP

Montauk Airport

Montauk, New York, USA
METAR KMTP 181954Z AUTO VRB03KT 08/07 A2996 RMK AO1 SLP146 T00780072
Observed Flight Rules
Dec-18 @ 19:54 UTC (17 minutes ago)
Wind
Variable at 3 knots
Temperatures Readings
Current 8°C / 46°F
Dewpoint 7°C / 45°F
Humidity 93%
Altimeter 29.96" Hg
Pressure 1014.6 hPa
Elevation 2
METAR KMTP 181954Z AUTO VRB03KT 08/07 A2996 RMK AO1 SLP146 T00780072
Observed Flight Rules
Dec-18 @ 19:54 UTC
(17 minutes ago)
Wind
Variable at 3 knots
Temperature Dewpoint
8°C / 46°F 7°C / 45°F
Humidity Altimeter Pressure
93% 29.96" Hg 1014.6 hPa